sensor_id;sensor_type;location;lat;lon;timestamp;P1;durP1;ratioP1;P2;durP2;ratioP2
58308;SDS011;44117;57.142;24.826;2022-10-15T00:00:50;18.73;;;9.98;;
58308;SDS011;44117;57.142;24.826;2022-10-15T00:03:18;16.83;;;8.88;;
58308;SDS011;44117;57.142;24.826;2022-10-15T00:05:45;14.40;;;8.38;;
58308;SDS011;44117;57.142;24.826;2022-10-15T00:08:12;16.52;;;8.63;;
58308;SDS011;44117;57.142;24.826;2022-10-15T00:10:40;12.95;;;8.48;;
58308;SDS011;44117;57.142;24.826;2022-10-15T00:13:07;12.98;;;8.60;;
58308;SDS011;44117;57.142;24.826;2022-10-15T00:15:35;18.88;;;9.60;;
58308;SDS011;44117;57.142;24.826;2022-10-15T00:18:03;17.35;;;9.10;;
58308;SDS011;44117;57.142;24.826;2022-10-15T00:20:30;16.70;;;8.88;;
58308;SDS011;44117;57.142;24.826;2022-10-15T00:22:57;17.95;;;9.45;;
58308;SDS011;44117;57.142;24.826;2022-10-15T00:25:24;15.88;;;9.48;;
58308;SDS011;44117;57.142;24.826;2022-10-15T00:27:52;21.25;;;13.10;;
58308;SDS011;44117;57.142;24.826;2022-10-15T00:30:19;19.52;;;9.98;;
58308;SDS011;44117;57.142;24.826;2022-10-15T00:32:46;19.90;;;10.38;;
58308;SDS011;44117;57.142;24.826;2022-10-15T00:35:13;22.83;;;12.30;;
58308;SDS011;44117;57.142;24.826;2022-10-15T00:37:41;17.27;;;10.48;;
58308;SDS011;44117;57.142;24.826;2022-10-15T00:40:10;15.40;;;9.60;;
58308;SDS011;44117;57.142;24.826;2022-10-15T00:42:40;17.30;;;10.05;;
58308;SDS011;44117;57.142;24.826;2022-10-15T00:45:09;14.25;;;9.57;;
58308;SDS011;44117;57.142;24.826;2022-10-15T00:47:40;16.45;;;9.25;;
58308;SDS011;44117;57.142;24.826;2022-10-15T00:50:12;18.63;;;10.00;;
58308;SDS011;44117;57.142;24.826;2022-10-15T00:52:56;16.45;;;10.50;;
58308;SDS011;44117;57.142;24.826;2022-10-15T00:55:29;17.17;;;9.10;;
58308;SDS011;44117;57.142;24.826;2022-10-15T00:58:04;16.73;;;9.52;;
58308;SDS011;44117;57.142;24.826;2022-10-15T01:00:43;16.02;;;9.68;;
58308;SDS011;44117;57.142;24.826;2022-10-15T01:03:11;16.48;;;9.13;;
58308;SDS011;44117;57.142;24.826;2022-10-15T01:05:38;19.05;;;9.15;;
58308;SDS011;44117;57.142;24.826;2022-10-15T01:08:06;23.95;;;12.20;;
58308;SDS011;44117;57.142;24.826;2022-10-15T01:10:36;19.17;;;10.60;;
58308;SDS011;44117;57.142;24.826;2022-10-15T01:27:31;15.30;;;9.05;;
58308;SDS011;44117;57.142;24.826;2022-10-15T01:38:02;14.07;;;8.45;;
58308;SDS011;44117;57.142;24.826;2022-10-15T01:40:48;14.98;;;9.45;;
58308;SDS011;44117;57.142;24.826;2022-10-15T01:46:02;19.50;;;10.13;;
58308;SDS011;44117;57.142;24.826;2022-10-15T01:48:34;12.52;;;8.68;;
58308;SDS011;44117;57.142;24.826;2022-10-15T01:51:04;17.25;;;9.00;;
58308;SDS011;44117;57.142;24.826;2022-10-15T01:53:33;15.45;;;8.68;;
58308;SDS011;44117;57.142;24.826;2022-10-15T01:56:08;16.63;;;9.32;;
58308;SDS011;44117;57.142;24.826;2022-10-15T01:58:40;15.25;;;9.27;;
58308;SDS011;44117;57.142;24.826;2022-10-15T02:01:09;13.77;;;9.15;;
58308;SDS011;44117;57.142;24.826;2022-10-15T02:03:47;15.98;;;9.52;;
58308;SDS011;44117;57.142;24.826;2022-10-15T02:06:24;17.83;;;9.25;;
58308;SDS011;44117;57.142;24.826;2022-10-15T02:11:28;12.65;;;9.18;;
58308;SDS011;44117;57.142;24.826;2022-10-15T02:17:02;16.35;;;9.70;;
58308;SDS011;44117;57.142;24.826;2022-10-15T02:22:33;17.63;;;9.27;;
58308;SDS011;44117;57.142;24.826;2022-10-15T02:25:19;15.40;;;9.25;;
58308;SDS011;44117;57.142;24.826;2022-10-15T02:27:49;16.63;;;9.18;;
58308;SDS011;44117;57.142;24.826;2022-10-15T02:30:19;13.98;;;8.80;;
58308;SDS011;44117;57.142;24.826;2022-10-15T02:32:51;14.57;;;8.95;;
58308;SDS011;44117;57.142;24.826;2022-10-15T02:35:20;16.45;;;8.88;;
58308;SDS011;44117;57.142;24.826;2022-10-15T02:37:49;13.88;;;9.07;;
58308;SDS011;44117;57.142;24.826;2022-10-15T02:40:23;15.27;;;8.70;;
58308;SDS011;44117;57.142;24.826;2022-10-15T02:42:53;16.70;;;9.52;;
58308;SDS011;44117;57.142;24.826;2022-10-15T02:45:21;16.63;;;9.27;;
58308;SDS011;44117;57.142;24.826;2022-10-15T02:47:49;14.05;;;8.80;;
58308;SDS011;44117;57.142;24.826;2022-10-15T02:50:16;16.25;;;9.10;;
58308;SDS011;44117;57.142;24.826;2022-10-15T02:52:43;18.15;;;8.75;;
58308;SDS011;44117;57.142;24.826;2022-10-15T02:55:11;16.20;;;9.80;;
58308;SDS011;44117;57.142;24.826;2022-10-15T02:57:38;16.60;;;9.88;;
58308;SDS011;44117;57.142;24.826;2022-10-15T03:00:06;18.45;;;9.27;;
58308;SDS011;44117;57.142;24.826;2022-10-15T03:02:33;18.73;;;9.30;;
58308;SDS011;44117;57.142;24.826;2022-10-15T03:05:01;13.95;;;8.50;;
58308;SDS011;44117;57.142;24.826;2022-10-15T03:07:28;14.02;;;8.93;;
58308;SDS011;44117;57.142;24.826;2022-10-15T03:09:55;15.93;;;9.90;;
58308;SDS011;44117;57.142;24.826;2022-10-15T03:12:23;17.70;;;9.32;;
58308;SDS011;44117;57.142;24.826;2022-10-15T03:14:51;13.63;;;9.07;;
58308;SDS011;44117;57.142;24.826;2022-10-15T03:17:19;14.52;;;10.02;;
58308;SDS011;44117;57.142;24.826;2022-10-15T03:19:47;16.02;;;9.80;;
58308;SDS011;44117;57.142;24.826;2022-10-15T03:22:14;18.23;;;9.73;;
58308;SDS011;44117;57.142;24.826;2022-10-15T03:24:41;13.88;;;8.32;;
58308;SDS011;44117;57.142;24.826;2022-10-15T03:27:09;14.52;;;8.93;;
58308;SDS011;44117;57.142;24.826;2022-10-15T03:29:36;12.45;;;8.43;;
58308;SDS011;44117;57.142;24.826;2022-10-15T03:32:03;17.30;;;11.30;;
58308;SDS011;44117;57.142;24.826;2022-10-15T03:34:31;22.13;;;14.68;;
58308;SDS011;44117;57.142;24.826;2022-10-15T03:36:58;27.23;;;17.38;;
58308;SDS011;44117;57.142;24.826;2022-10-15T03:39:25;38.38;;;23.27;;
58308;SDS011;44117;57.142;24.826;2022-10-15T03:41:52;29.23;;;19.45;;
58308;SDS011;44117;57.142;24.826;2022-10-15T03:44:20;31.08;;;19.05;;
58308;SDS011;44117;57.142;24.826;2022-10-15T03:46:47;27.45;;;16.10;;
58308;SDS011;44117;57.142;24.826;2022-10-15T03:49:14;31.92;;;18.48;;
58308;SDS011;44117;57.142;24.826;2022-10-15T03:51:41;26.13;;;14.65;;
58308;SDS011;44117;57.142;24.826;2022-10-15T03:54:09;19.80;;;11.70;;
58308;SDS011;44117;57.142;24.826;2022-10-15T03:56:36;16.35;;;10.50;;
58308;SDS011;44117;57.142;24.826;2022-10-15T03:59:03;18.67;;;10.02;;
58308;SDS011;44117;57.142;24.826;2022-10-15T04:01:30;16.55;;;9.68;;
58308;SDS011;44117;57.142;24.826;2022-10-15T04:03:57;15.27;;;9.55;;
58308;SDS011;44117;57.142;24.826;2022-10-15T04:06:25;15.95;;;10.00;;
58308;SDS011;44117;57.142;24.826;2022-10-15T04:08:52;14.15;;;8.82;;
58308;SDS011;44117;57.142;24.826;2022-10-15T04:11:19;17.88;;;11.07;;
58308;SDS011;44117;57.142;24.826;2022-10-15T04:13:47;19.98;;;11.98;;
58308;SDS011;44117;57.142;24.826;2022-10-15T04:16:15;19.50;;;12.57;;
58308;SDS011;44117;57.142;24.826;2022-10-15T04:18:43;18.92;;;12.23;;
58308;SDS011;44117;57.142;24.826;2022-10-15T04:21:10;20.00;;;12.43;;
58308;SDS011;44117;57.142;24.826;2022-10-15T04:23:37;13.80;;;10.48;;
58308;SDS011;44117;57.142;24.826;2022-10-15T04:26:05;15.15;;;10.38;;
58308;SDS011;44117;57.142;24.826;2022-10-15T04:28:32;19.02;;;11.48;;
58308;SDS011;44117;57.142;24.826;2022-10-15T04:31:00;13.52;;;9.60;;
58308;SDS011;44117;57.142;24.826;2022-10-15T04:33:27;14.18;;;10.55;;
58308;SDS011;44117;57.142;24.826;2022-10-15T04:36:01;17.23;;;9.93;;
58308;SDS011;44117;57.142;24.826;2022-10-15T04:38:29;16.55;;;10.13;;
58308;SDS011;44117;57.142;24.826;2022-10-15T04:40:57;16.65;;;10.25;;
58308;SDS011;44117;57.142;24.826;2022-10-15T04:43:30;14.95;;;9.98;;
58308;SDS011;44117;57.142;24.826;2022-10-15T04:45:57;18.77;;;12.40;;
58308;SDS011;44117;57.142;24.826;2022-10-15T04:48:26;17.38;;;10.85;;
58308;SDS011;44117;57.142;24.826;2022-10-15T04:51:01;18.13;;;10.35;;
58308;SDS011;44117;57.142;24.826;2022-10-15T04:53:39;16.90;;;9.70;;
58308;SDS011;44117;57.142;24.826;2022-10-15T04:56:07;14.25;;;9.43;;
58308;SDS011;44117;57.142;24.826;2022-10-15T04:58:39;15.55;;;9.90;;
58308;SDS011;44117;57.142;24.826;2022-10-15T05:01:08;15.57;;;9.75;;
58308;SDS011;44117;57.142;24.826;2022-10-15T05:03:38;15.57;;;10.10;;
58308;SDS011;44117;57.142;24.826;2022-10-15T05:06:17;14.23;;;9.75;;
58308;SDS011;44117;57.142;24.826;2022-10-15T05:08:46;14.73;;;9.38;;
58308;SDS011;44117;57.142;24.826;2022-10-15T05:11:17;15.18;;;9.82;;
58308;SDS011;44117;57.142;24.826;2022-10-15T05:13:46;17.05;;;9.70;;
58308;SDS011;44117;57.142;24.826;2022-10-15T05:18:43;15.27;;;10.05;;
58308;SDS011;44117;57.142;24.826;2022-10-15T05:21:13;14.40;;;9.13;;
58308;SDS011;44117;57.142;24.826;2022-10-15T05:23:41;18.88;;;10.30;;
58308;SDS011;44117;57.142;24.826;2022-10-15T05:26:10;17.48;;;8.80;;
58308;SDS011;44117;57.142;24.826;2022-10-15T05:28:39;14.38;;;10.00;;
58308;SDS011;44117;57.142;24.826;2022-10-15T05:31:08;16.80;;;10.32;;
58308;SDS011;44117;57.142;24.826;2022-10-15T05:33:44;20.70;;;13.90;;
58308;SDS011;44117;57.142;24.826;2022-10-15T05:36:13;13.35;;;9.45;;
58308;SDS011;44117;57.142;24.826;2022-10-15T05:38:46;14.30;;;9.00;;
58308;SDS011;44117;57.142;24.826;2022-10-15T05:41:18;13.43;;;9.48;;
58308;SDS011;44117;57.142;24.826;2022-10-15T05:43:46;17.35;;;9.70;;
58308;SDS011;44117;57.142;24.826;2022-10-15T05:46:17;15.65;;;10.15;;
58308;SDS011;44117;57.142;24.826;2022-10-15T05:48:49;19.70;;;9.48;;
58308;SDS011;44117;57.142;24.826;2022-10-15T05:51:21;13.85;;;9.18;;
58308;SDS011;44117;57.142;24.826;2022-10-15T05:53:55;16.40;;;10.18;;
58308;SDS011;44117;57.142;24.826;2022-10-15T05:56:23;16.45;;;9.30;;
58308;SDS011;44117;57.142;24.826;2022-10-15T05:58:51;16.67;;;10.02;;
58308;SDS011;44117;57.142;24.826;2022-10-15T06:01:18;17.45;;;10.48;;
58308;SDS011;44117;57.142;24.826;2022-10-15T06:03:46;20.10;;;10.15;;
58308;SDS011;44117;57.142;24.826;2022-10-15T06:06:14;19.73;;;11.13;;
58308;SDS011;44117;57.142;24.826;2022-10-15T06:08:46;19.80;;;11.23;;
58308;SDS011;44117;57.142;24.826;2022-10-15T06:11:14;20.40;;;12.38;;
58308;SDS011;44117;57.142;24.826;2022-10-15T06:13:42;27.08;;;15.30;;
58308;SDS011;44117;57.142;24.826;2022-10-15T06:16:10;21.50;;;12.57;;
58308;SDS011;44117;57.142;24.826;2022-10-15T06:18:39;24.98;;;17.05;;
58308;SDS011;44117;57.142;24.826;2022-10-15T06:21:06;40.13;;;24.30;;
58308;SDS011;44117;57.142;24.826;2022-10-15T06:23:34;38.63;;;21.63;;
58308;SDS011;44117;57.142;24.826;2022-10-15T06:26:05;17.20;;;10.13;;
58308;SDS011;44117;57.142;24.826;2022-10-15T06:28:34;16.67;;;11.43;;
58308;SDS011;44117;57.142;24.826;2022-10-15T06:31:02;17.58;;;10.77;;
58308;SDS011;44117;57.142;24.826;2022-10-15T06:33:30;19.15;;;12.63;;
58308;SDS011;44117;57.142;24.826;2022-10-15T06:36:05;18.05;;;11.00;;
58308;SDS011;44117;57.142;24.826;2022-10-15T06:38:34;20.40;;;11.27;;
58308;SDS011;44117;57.142;24.826;2022-10-15T06:41:06;18.40;;;11.43;;
58308;SDS011;44117;57.142;24.826;2022-10-15T06:43:33;18.80;;;11.13;;
58308;SDS011;44117;57.142;24.826;2022-10-15T06:46:01;19.88;;;12.38;;
58308;SDS011;44117;57.142;24.826;2022-10-15T06:48:30;23.23;;;14.85;;
58308;SDS011;44117;57.142;24.826;2022-10-15T06:50:59;16.63;;;11.40;;
58308;SDS011;44117;57.142;24.826;2022-10-15T06:53:27;16.58;;;11.07;;
58308;SDS011;44117;57.142;24.826;2022-10-15T06:55:56;18.27;;;12.95;;
58308;SDS011;44117;57.142;24.826;2022-10-15T06:58:24;24.83;;;16.90;;
58308;SDS011;44117;57.142;24.826;2022-10-15T07:00:51;17.52;;;12.90;;
58308;SDS011;44117;57.142;24.826;2022-10-15T07:03:18;21.52;;;12.57;;
58308;SDS011;44117;57.142;24.826;2022-10-15T07:05:46;19.63;;;12.38;;
58308;SDS011;44117;57.142;24.826;2022-10-15T07:08:13;19.83;;;12.13;;
58308;SDS011;44117;57.142;24.826;2022-10-15T07:10:45;25.50;;;12.70;;
58308;SDS011;44117;57.142;24.826;2022-10-15T07:13:13;20.85;;;11.70;;
58308;SDS011;44117;57.142;24.826;2022-10-15T07:15:40;32.88;;;17.90;;
58308;SDS011;44117;57.142;24.826;2022-10-15T07:18:10;24.25;;;16.33;;
58308;SDS011;44117;57.142;24.826;2022-10-15T07:20:37;24.10;;;16.05;;
58308;SDS011;44117;57.142;24.826;2022-10-15T07:23:04;24.15;;;14.18;;
58308;SDS011;44117;57.142;24.826;2022-10-15T07:25:31;21.08;;;13.30;;
58308;SDS011;44117;57.142;24.826;2022-10-15T07:27:58;22.75;;;13.40;;
58308;SDS011;44117;57.142;24.826;2022-10-15T07:30:26;23.35;;;14.75;;
58308;SDS011;44117;57.142;24.826;2022-10-15T07:32:59;18.48;;;11.55;;
58308;SDS011;44117;57.142;24.826;2022-10-15T07:35:26;23.52;;;14.75;;
58308;SDS011;44117;57.142;24.826;2022-10-15T07:37:54;21.63;;;13.88;;
58308;SDS011;44117;57.142;24.826;2022-10-15T07:40:21;19.70;;;11.50;;
58308;SDS011;44117;57.142;24.826;2022-10-15T07:42:55;20.42;;;10.90;;
58308;SDS011;44117;57.142;24.826;2022-10-15T07:45:23;18.52;;;11.73;;
58308;SDS011;44117;57.142;24.826;2022-10-15T07:47:52;17.83;;;11.85;;
58308;SDS011;44117;57.142;24.826;2022-10-15T07:50:20;18.63;;;12.07;;
58308;SDS011;44117;57.142;24.826;2022-10-15T07:52:47;18.13;;;13.30;;
58308;SDS011;44117;57.142;24.826;2022-10-15T07:55:14;18.80;;;11.63;;
58308;SDS011;44117;57.142;24.826;2022-10-15T07:57:42;20.40;;;12.18;;
58308;SDS011;44117;57.142;24.826;2022-10-15T08:00:09;22.67;;;13.07;;
58308;SDS011;44117;57.142;24.826;2022-10-15T08:02:38;23.63;;;13.60;;
58308;SDS011;44117;57.142;24.826;2022-10-15T08:05:06;19.58;;;14.32;;
58308;SDS011;44117;57.142;24.826;2022-10-15T08:07:33;19.05;;;12.13;;
58308;SDS011;44117;57.142;24.826;2022-10-15T08:10:01;20.80;;;13.18;;
58308;SDS011;44117;57.142;24.826;2022-10-15T08:12:28;22.88;;;13.18;;
58308;SDS011;44117;57.142;24.826;2022-10-15T08:14:55;19.20;;;13.57;;
58308;SDS011;44117;57.142;24.826;2022-10-15T08:17:22;20.45;;;13.77;;
58308;SDS011;44117;57.142;24.826;2022-10-15T08:19:50;18.92;;;13.32;;
58308;SDS011;44117;57.142;24.826;2022-10-15T08:22:17;23.88;;;12.77;;
58308;SDS011;44117;57.142;24.826;2022-10-15T08:24:44;18.17;;;14.25;;
58308;SDS011;44117;57.142;24.826;2022-10-15T08:27:11;21.05;;;12.85;;
58308;SDS011;44117;57.142;24.826;2022-10-15T08:29:39;21.30;;;14.85;;
58308;SDS011;44117;57.142;24.826;2022-10-15T08:32:06;25.30;;;13.52;;
58308;SDS011;44117;57.142;24.826;2022-10-15T08:34:33;21.70;;;14.48;;
58308;SDS011;44117;57.142;24.826;2022-10-15T08:37:01;19.23;;;14.60;;
58308;SDS011;44117;57.142;24.826;2022-10-15T08:39:29;16.00;;;12.55;;
58308;SDS011;44117;57.142;24.826;2022-10-15T08:42:00;20.17;;;14.20;;
58308;SDS011;44117;57.142;24.826;2022-10-15T08:44:30;20.58;;;14.07;;
58308;SDS011;44117;57.142;24.826;2022-10-15T08:47:06;23.85;;;18.83;;
58308;SDS011;44117;57.142;24.826;2022-10-15T08:49:46;53.38;;;34.97;;
58308;SDS011;44117;57.142;24.826;2022-10-15T08:52:16;70.82;;;48.20;;
58308;SDS011;44117;57.142;24.826;2022-10-15T08:55:03;24.88;;;15.65;;
58308;SDS011;44117;57.142;24.826;2022-10-15T09:00:13;23.90;;;16.42;;
58308;SDS011;44117;57.142;24.826;2022-10-15T09:02:49;18.33;;;13.80;;
58308;SDS011;44117;57.142;24.826;2022-10-15T09:08:32;17.23;;;13.55;;
58308;SDS011;44117;57.142;24.826;2022-10-15T09:13:49;20.25;;;13.43;;
58308;SDS011;44117;57.142;24.826;2022-10-15T09:16:18;16.05;;;12.15;;
58308;SDS011;44117;57.142;24.826;2022-10-15T09:21:19;15.35;;;12.15;;
58308;SDS011;44117;57.142;24.826;2022-10-15T09:23:49;17.27;;;12.43;;
58308;SDS011;44117;57.142;24.826;2022-10-15T09:29:22;18.80;;;12.77;;
58308;SDS011;44117;57.142;24.826;2022-10-15T09:32:12;16.25;;;12.35;;
58308;SDS011;44117;57.142;24.826;2022-10-15T09:34:53;19.17;;;12.23;;
58308;SDS011;44117;57.142;24.826;2022-10-15T09:37:32;15.93;;;12.65;;
58308;SDS011;44117;57.142;24.826;2022-10-15T09:40:33;14.52;;;11.65;;
58308;SDS011;44117;57.142;24.826;2022-10-15T09:43:02;15.88;;;11.65;;
58308;SDS011;44117;57.142;24.826;2022-10-15T09:45:31;15.32;;;10.95;;
58308;SDS011;44117;57.142;24.826;2022-10-15T09:47:59;15.00;;;12.18;;
58308;SDS011;44117;57.142;24.826;2022-10-15T09:50:27;19.13;;;12.10;;
58308;SDS011;44117;57.142;24.826;2022-10-15T09:53:51;16.55;;;12.35;;
58308;SDS011;44117;57.142;24.826;2022-10-15T10:01:23;15.30;;;11.52;;
58308;SDS011;44117;57.142;24.826;2022-10-15T10:04:16;15.48;;;12.23;;
58308;SDS011;44117;57.142;24.826;2022-10-15T10:06:49;16.35;;;12.20;;
58308;SDS011;44117;57.142;24.826;2022-10-15T10:09:20;19.95;;;13.63;;
58308;SDS011;44117;57.142;24.826;2022-10-15T10:12:00;20.92;;;13.23;;
58308;SDS011;44117;57.142;24.826;2022-10-15T10:14:32;17.23;;;13.88;;
58308;SDS011;44117;57.142;24.826;2022-10-15T10:20:02;17.08;;;12.63;;
58308;SDS011;44117;57.142;24.826;2022-10-15T10:30:36;15.82;;;11.90;;
58308;SDS011;44117;57.142;24.826;2022-10-15T10:33:09;14.35;;;11.48;;
58308;SDS011;44117;57.142;24.826;2022-10-15T10:35:44;15.10;;;11.75;;
58308;SDS011;44117;57.142;24.826;2022-10-15T10:38:19;16.95;;;12.10;;
58308;SDS011;44117;57.142;24.826;2022-10-15T10:40:49;14.98;;;10.98;;
58308;SDS011;44117;57.142;24.826;2022-10-15T10:43:20;18.13;;;11.30;;
58308;SDS011;44117;57.142;24.826;2022-10-15T10:51:13;16.08;;;10.95;;
58308;SDS011;44117;57.142;24.826;2022-10-15T10:54:03;13.15;;;10.35;;
58308;SDS011;44117;57.142;24.826;2022-10-15T10:56:36;14.90;;;11.07;;
58308;SDS011;44117;57.142;24.826;2022-10-15T10:59:17;13.50;;;10.20;;
58308;SDS011;44117;57.142;24.826;2022-10-15T11:01:55;14.18;;;10.63;;
58308;SDS011;44117;57.142;24.826;2022-10-15T11:04:29;13.07;;;10.45;;
58308;SDS011;44117;57.142;24.826;2022-10-15T11:07:02;13.82;;;10.95;;
58308;SDS011;44117;57.142;24.826;2022-10-15T11:09:47;16.88;;;10.98;;
58308;SDS011;44117;57.142;24.826;2022-10-15T11:23:56;16.42;;;11.68;;
58308;SDS011;44117;57.142;24.826;2022-10-15T11:29:36;14.48;;;12.82;;
58308;SDS011;44117;57.142;24.826;2022-10-15T11:38:32;14.85;;;12.63;;
58308;SDS011;44117;57.142;24.826;2022-10-15T11:57:31;24.05;;;16.88;;
58308;SDS011;44117;57.142;24.826;2022-10-15T12:00:03;21.75;;;18.52;;
58308;SDS011;44117;57.142;24.826;2022-10-15T12:02:52;21.55;;;18.80;;
58308;SDS011;44117;57.142;24.826;2022-10-15T12:08:20;26.70;;;20.33;;
58308;SDS011;44117;57.142;24.826;2022-10-15T12:13:28;22.85;;;19.40;;
58308;SDS011;44117;57.142;24.826;2022-10-15T12:18:39;24.40;;;19.52;;
58308;SDS011;44117;57.142;24.826;2022-10-15T12:21:32;25.83;;;20.27;;
58308;SDS011;44117;57.142;24.826;2022-10-15T12:24:02;25.75;;;21.52;;
58308;SDS011;44117;57.142;24.826;2022-10-15T12:26:32;25.25;;;20.67;;
58308;SDS011;44117;57.142;24.826;2022-10-15T12:29:02;26.73;;;22.48;;
58308;SDS011;44117;57.142;24.826;2022-10-15T12:31:41;26.23;;;20.90;;
58308;SDS011;44117;57.142;24.826;2022-10-15T12:34:32;30.60;;;21.92;;
58308;SDS011;44117;57.142;24.826;2022-10-15T12:37:12;23.20;;;20.58;;
58308;SDS011;44117;57.142;24.826;2022-10-15T12:39:43;27.33;;;22.35;;
58308;SDS011;44117;57.142;24.826;2022-10-15T12:42:20;26.52;;;21.15;;
58308;SDS011;44117;57.142;24.826;2022-10-15T12:44:48;28.63;;;23.00;;
58308;SDS011;44117;57.142;24.826;2022-10-15T12:47:37;25.13;;;20.88;;
58308;SDS011;44117;57.142;24.826;2022-10-15T12:50:17;26.35;;;21.58;;
58308;SDS011;44117;57.142;24.826;2022-10-15T12:55:27;26.02;;;20.88;;
58308;SDS011;44117;57.142;24.826;2022-10-15T13:11:41;22.70;;;18.88;;
58308;SDS011;44117;57.142;24.826;2022-10-15T13:16:46;23.55;;;18.05;;
58308;SDS011;44117;57.142;24.826;2022-10-15T13:19:20;23.70;;;18.73;;
58308;SDS011;44117;57.142;24.826;2022-10-15T13:21:55;25.02;;;19.88;;
58308;SDS011;44117;57.142;24.826;2022-10-15T13:24:25;24.27;;;21.17;;
58308;SDS011;44117;57.142;24.826;2022-10-15T13:26:55;24.95;;;21.25;;
58308;SDS011;44117;57.142;24.826;2022-10-15T13:29:26;28.58;;;22.63;;
58308;SDS011;44117;57.142;24.826;2022-10-15T13:31:54;26.30;;;20.30;;
58308;SDS011;44117;57.142;24.826;2022-10-15T13:34:29;29.55;;;20.95;;
58308;SDS011;44117;57.142;24.826;2022-10-15T13:36:59;27.92;;;20.67;;
58308;SDS011;44117;57.142;24.826;2022-10-15T13:39:32;28.15;;;20.65;;
58308;SDS011;44117;57.142;24.826;2022-10-15T13:42:07;26.75;;;20.67;;
58308;SDS011;44117;57.142;24.826;2022-10-15T13:44:55;24.92;;;19.15;;
58308;SDS011;44117;57.142;24.826;2022-10-15T13:50:13;26.02;;;17.95;;
58308;SDS011;44117;57.142;24.826;2022-10-15T13:53:31;24.42;;;17.95;;
58308;SDS011;44117;57.142;24.826;2022-10-15T13:55:36;24.20;;;17.45;;
58308;SDS011;44117;57.142;24.826;2022-10-15T13:58:15;21.35;;;16.92;;
58308;SDS011;44117;57.142;24.826;2022-10-15T14:00:57;20.70;;;16.67;;
58308;SDS011;44117;57.142;24.826;2022-10-15T14:03:30;23.95;;;18.73;;
58308;SDS011;44117;57.142;24.826;2022-10-15T14:06:21;26.20;;;20.50;;
58308;SDS011;44117;57.142;24.826;2022-10-15T14:08:58;22.90;;;18.92;;
58308;SDS011;44117;57.142;24.826;2022-10-15T14:11:45;21.73;;;17.63;;
58308;SDS011;44117;57.142;24.826;2022-10-15T14:19:51;27.48;;;20.52;;
58308;SDS011;44117;57.142;24.826;2022-10-15T14:22:41;26.90;;;19.63;;
58308;SDS011;44117;57.142;24.826;2022-10-15T14:25:08;19.88;;;15.80;;
58308;SDS011;44117;57.142;24.826;2022-10-15T14:27:37;67.97;;;53.30;;
58308;SDS011;44117;57.142;24.826;2022-10-15T14:30:13;42.10;;;31.88;;
58308;SDS011;44117;57.142;24.826;2022-10-15T14:32:47;33.33;;;24.23;;
58308;SDS011;44117;57.142;24.826;2022-10-15T14:35:28;33.03;;;23.50;;
58308;SDS011;44117;57.142;24.826;2022-10-15T14:38:04;41.63;;;28.17;;
58308;SDS011;44117;57.142;24.826;2022-10-15T14:43:33;38.20;;;29.55;;
58308;SDS011;44117;57.142;24.826;2022-10-15T14:46:06;43.40;;;33.83;;
58308;SDS011;44117;57.142;24.826;2022-10-15T14:48:38;38.78;;;28.38;;
58308;SDS011;44117;57.142;24.826;2022-10-15T14:51:28;34.55;;;23.85;;
58308;SDS011;44117;57.142;24.826;2022-10-15T14:53:55;31.80;;;23.33;;
58308;SDS011;44117;57.142;24.826;2022-10-15T14:56:23;33.08;;;22.00;;
58308;SDS011;44117;57.142;24.826;2022-10-15T14:58:55;40.92;;;28.30;;
58308;SDS011;44117;57.142;24.826;2022-10-15T15:01:24;65.25;;;40.10;;
58308;SDS011;44117;57.142;24.826;2022-10-15T15:03:57;64.47;;;40.38;;
58308;SDS011;44117;57.142;24.826;2022-10-15T15:06:24;94.20;;;44.88;;
58308;SDS011;44117;57.142;24.826;2022-10-15T15:08:51;65.85;;;35.53;;
58308;SDS011;44117;57.142;24.826;2022-10-15T15:11:20;123.53;;;50.28;;
58308;SDS011;44117;57.142;24.826;2022-10-15T15:13:49;84.38;;;39.72;;
58308;SDS011;44117;57.142;24.826;2022-10-15T15:16:17;78.82;;;38.72;;
58308;SDS011;44117;57.142;24.826;2022-10-15T15:18:45;70.70;;;35.05;;
58308;SDS011;44117;57.142;24.826;2022-10-15T15:21:15;78.60;;;39.15;;
58308;SDS011;44117;57.142;24.826;2022-10-15T15:23:47;60.40;;;33.75;;
58308;SDS011;44117;57.142;24.826;2022-10-15T15:26:14;115.80;;;64.13;;
58308;SDS011;44117;57.142;24.826;2022-10-15T15:28:42;95.70;;;67.85;;
58308;SDS011;44117;57.142;24.826;2022-10-15T15:31:14;65.68;;;36.15;;
58308;SDS011;44117;57.142;24.826;2022-10-15T15:33:43;63.67;;;43.95;;
58308;SDS011;44117;57.142;24.826;2022-10-15T15:36:15;108.20;;;65.13;;
58308;SDS011;44117;57.142;24.826;2022-10-15T15:38:48;140.13;;;89.32;;
58308;SDS011;44117;57.142;24.826;2022-10-15T15:41:17;77.93;;;47.92;;
58308;SDS011;44117;57.142;24.826;2022-10-15T15:43:48;105.38;;;60.72;;
58308;SDS011;44117;57.142;24.826;2022-10-15T15:46:16;90.90;;;59.10;;
58308;SDS011;44117;57.142;24.826;2022-10-15T15:48:43;65.57;;;42.45;;
58308;SDS011;44117;57.142;24.826;2022-10-15T15:51:27;196.85;;;112.72;;
58308;SDS011;44117;57.142;24.826;2022-10-15T15:53:57;169.98;;;98.05;;
58308;SDS011;44117;57.142;24.826;2022-10-15T15:56:24;79.57;;;42.83;;
58308;SDS011;44117;57.142;24.826;2022-10-15T15:58:52;151.10;;;89.35;;
58308;SDS011;44117;57.142;24.826;2022-10-15T16:01:19;155.13;;;75.03;;
58308;SDS011;44117;57.142;24.826;2022-10-15T16:03:47;140.55;;;69.43;;
58308;SDS011;44117;57.142;24.826;2022-10-15T16:06:14;123.22;;;64.57;;
58308;SDS011;44117;57.142;24.826;2022-10-15T16:08:41;106.38;;;53.63;;
58308;SDS011;44117;57.142;24.826;2022-10-15T16:11:09;74.95;;;42.25;;
58308;SDS011;44117;57.142;24.826;2022-10-15T16:13:36;75.25;;;45.25;;
58308;SDS011;44117;57.142;24.826;2022-10-15T16:16:03;39.72;;;27.10;;
58308;SDS011;44117;57.142;24.826;2022-10-15T16:18:31;29.25;;;17.20;;
58308;SDS011;44117;57.142;24.826;2022-10-15T16:20:58;28.40;;;18.92;;
58308;SDS011;44117;57.142;24.826;2022-10-15T16:23:25;26.42;;;20.65;;
58308;SDS011;44117;57.142;24.826;2022-10-15T16:25:53;21.38;;;13.50;;
58308;SDS011;44117;57.142;24.826;2022-10-15T16:28:23;66.70;;;42.90;;
58308;SDS011;44117;57.142;24.826;2022-10-15T16:30:51;20.88;;;15.60;;
58308;SDS011;44117;57.142;24.826;2022-10-15T16:33:18;26.30;;;18.33;;
58308;SDS011;44117;57.142;24.826;2022-10-15T16:35:52;24.80;;;16.13;;
58308;SDS011;44117;57.142;24.826;2022-10-15T16:38:19;24.42;;;16.35;;
58308;SDS011;44117;57.142;24.826;2022-10-15T16:40:49;20.75;;;15.20;;
58308;SDS011;44117;57.142;24.826;2022-10-15T16:43:16;25.63;;;18.10;;
58308;SDS011;44117;57.142;24.826;2022-10-15T16:45:43;22.92;;;16.90;;
58308;SDS011;44117;57.142;24.826;2022-10-15T16:48:19;22.02;;;15.02;;
58308;SDS011;44117;57.142;24.826;2022-10-15T16:50:57;16.60;;;13.63;;
58308;SDS011;44117;57.142;24.826;2022-10-15T16:53:36;20.67;;;13.00;;
58308;SDS011;44117;57.142;24.826;2022-10-15T16:56:05;18.70;;;12.98;;
58308;SDS011;44117;57.142;24.826;2022-10-15T16:58:40;19.65;;;13.15;;
58308;SDS011;44117;57.142;24.826;2022-10-15T17:01:12;21.90;;;15.48;;